This demonstration page uses our WeatherBlox Daily Observations layout. Learn more.

38.88101, -77.10428

Hourly Observations for January 3, 2016

Temp ( °F °C ) Dew Point ( °F °C ) Humidity (%) Winds ( mph kmh ) Pressure ( in mb ) Visibility ( mi km ) Precip ( " mm )
12:52 am 00:52 Clear 37 3 30 -1 75 75 S 5 7 30 1016 10 16.09344 0 0
1:52 am 01:52 Clear 36 2 28 -2 75 75 Calm 29.97 1015 10 16.09344 0 0
2:52 am 02:52 Clear 34 1 28 -2 81 81 SW 5 7 29.97 1015 10 16.09344 0 0
3:52 am 03:52 Clear 32 0 28 -2 87 87 SSW 7 11 29.94 1014 10 16.09344 0 0
4:52 am 04:52 Mostly Clear 34 1 30 -1 87 87 S 3 6 29.94 1014 10 16.09344 0 0
5:52 am 05:52 Clear 32 0 27 -3 80 80 SSW 8 13 29.91 1013 10 16.09344 0 0
6:52 am 06:52 Mostly Clear 34 1 28 -2 81 81 WSW 3 6 29.94 1014 10 16.09344 0 0
7:52 am 07:52 Mostly Sunny 32 0 27 -3 80 80 SW 7 11 29.94 1014 10 16.09344 0 0
8:52 am 08:52 Mostly Sunny 36 2 30 -1 81 81 S 6 9 29.94 1014 10 16.09344 0 0
9:52 am 09:52 Mostly Sunny 39 4 28 -2 65 65 SSW 7 11 29.94 1014 10 16.09344 0 0
10:52 am 10:52 Partly Cloudy 43 6 30 -1 61 61 SE 5 7 29.91 1013 10 16.09344 0 0
11:52 am 11:52 Partly Cloudy 46 8 30 -1 53 53 S 6 9 29.88 1012 10 16.09344 0 0
12:52 pm 12:52 Partly Cloudy 48 9 32 0 54 54 S 12 19 29.85 1011 10 16.09344 0 0
1:52 pm 13:52 Partly Cloudy 52 11 27 -3 38 38 SSE 6 9 29.83 1010 10 16.09344 0 0
2:52 pm 14:52 Partly Cloudy 54 12 23 -5 30 30 E 3 6 29.83 1010 10 16.09344 0 0
3:52 pm 15:52 Partly Cloudy 52 11 27 -3 38 38 N 9 15 29.85 1011 10 16.09344 0 0
4:52 pm 16:52 Partly Cloudy 48 9 25 -4 40 40 NNW 9 15 29.88 1012 10 16.09344 0 0
5:52 pm 17:52 Mostly Clear 46 8 27 -3 46 46 N 20 31 29.91 1013 10 16.09344 0 0
6:52 pm 18:52 Mostly Clear 41 5 25 -4 53 53 N 20 31 29.97 1015 10 16.09344 0 0
7:52 pm 19:52 Mostly Clear 39 4 25 -4 56 56 N 15 24 30 1016 10 16.09344 0 0
8:52 pm 20:52 Mostly Clear 37 3 25 -4 60 60 N 9 15 30 1016 10 16.09344 0 0
9:52 pm 21:52 Mostly Clear 37 3 25 -4 60 60 N 8 13 30 1016 10 16.09344 0 0
10:52 pm 22:52 Mostly Clear 37 3 25 -4 60 60 NNW 8 13 30 1016 10 16.09344 0 0
11:52 pm 23:52 Partly Cloudy 36 2 25 -4 65 65 NNW 8 13 30 1016 10 16.09344 0 0

Powered by AerisWeather